sensor_id;sensor_type;location;lat;lon;timestamp;P1;durP1;ratioP1;P2;durP2;ratioP2
63259;SDS011;49390;51.380;0.098;2022-12-18T00:00:25;35.33;;;13.63;;
63259;SDS011;49390;51.380;0.098;2022-12-18T00:03:14;31.63;;;13.00;;
63259;SDS011;49390;51.380;0.098;2022-12-18T00:05:47;32.30;;;13.30;;
63259;SDS011;49390;51.380;0.098;2022-12-18T00:08:16;37.97;;;13.18;;
63259;SDS011;49390;51.380;0.098;2022-12-18T00:10:46;32.03;;;14.48;;
63259;SDS011;49390;51.380;0.098;2022-12-18T00:13:14;32.90;;;14.10;;
63259;SDS011;49390;51.380;0.098;2022-12-18T00:15:42;33.55;;;13.52;;
63259;SDS011;49390;51.380;0.098;2022-12-18T00:18:11;29.85;;;12.52;;
63259;SDS011;49390;51.380;0.098;2022-12-18T00:20:47;35.22;;;14.77;;
63259;SDS011;49390;51.380;0.098;2022-12-18T00:23:18;36.50;;;13.73;;
63259;SDS011;49390;51.380;0.098;2022-12-18T00:25:49;30.02;;;12.82;;
63259;SDS011;49390;51.380;0.098;2022-12-18T00:28:17;32.33;;;11.95;;
63259;SDS011;49390;51.380;0.098;2022-12-18T00:30:46;31.77;;;11.70;;
63259;SDS011;49390;51.380;0.098;2022-12-18T00:33:18;34.10;;;13.02;;
63259;SDS011;49390;51.380;0.098;2022-12-18T00:35:46;32.72;;;12.57;;
63259;SDS011;49390;51.380;0.098;2022-12-18T00:38:14;33.88;;;12.63;;
63259;SDS011;49390;51.380;0.098;2022-12-18T00:40:43;35.58;;;14.70;;
63259;SDS011;49390;51.380;0.098;2022-12-18T00:43:12;31.08;;;12.25;;
63259;SDS011;49390;51.380;0.098;2022-12-18T00:45:42;32.72;;;11.85;;
63259;SDS011;49390;51.380;0.098;2022-12-18T00:48:11;36.58;;;13.82;;
63259;SDS011;49390;51.380;0.098;2022-12-18T00:50:39;32.72;;;13.13;;
63259;SDS011;49390;51.380;0.098;2022-12-18T00:53:11;31.05;;;12.35;;
63259;SDS011;49390;51.380;0.098;2022-12-18T00:55:40;28.98;;;12.65;;
63259;SDS011;49390;51.380;0.098;2022-12-18T00:58:11;32.83;;;13.15;;
63259;SDS011;49390;51.380;0.098;2022-12-18T01:00:43;30.95;;;12.18;;
63259;SDS011;49390;51.380;0.098;2022-12-18T01:03:13;34.67;;;13.13;;
63259;SDS011;49390;51.380;0.098;2022-12-18T01:05:44;32.45;;;12.98;;
63259;SDS011;49390;51.380;0.098;2022-12-18T01:08:12;32.03;;;14.02;;
63259;SDS011;49390;51.380;0.098;2022-12-18T01:10:43;31.67;;;13.75;;
63259;SDS011;49390;51.380;0.098;2022-12-18T01:13:12;36.58;;;12.63;;
63259;SDS011;49390;51.380;0.098;2022-12-18T01:15:47;31.17;;;12.65;;
63259;SDS011;49390;51.380;0.098;2022-12-18T01:18:17;36.25;;;14.05;;
63259;SDS011;49390;51.380;0.098;2022-12-18T01:20:48;34.75;;;13.00;;
63259;SDS011;49390;51.380;0.098;2022-12-18T01:23:15;29.13;;;12.05;;
63259;SDS011;49390;51.380;0.098;2022-12-18T01:25:43;31.17;;;11.77;;
63259;SDS011;49390;51.380;0.098;2022-12-18T01:28:14;34.28;;;13.63;;
63259;SDS011;49390;51.380;0.098;2022-12-18T01:30:42;24.45;;;9.60;;
63259;SDS011;49390;51.380;0.098;2022-12-18T01:33:11;29.55;;;11.93;;
63259;SDS011;49390;51.380;0.098;2022-12-18T01:35:40;31.88;;;12.40;;
63259;SDS011;49390;51.380;0.098;2022-12-18T01:38:11;35.22;;;13.02;;
63259;SDS011;49390;51.380;0.098;2022-12-18T01:40:40;32.05;;;12.30;;
63259;SDS011;49390;51.380;0.098;2022-12-18T01:43:10;28.10;;;11.55;;
63259;SDS011;49390;51.380;0.098;2022-12-18T01:45:38;27.58;;;11.88;;
63259;SDS011;49390;51.380;0.098;2022-12-18T01:48:07;31.00;;;13.48;;
63259;SDS011;49390;51.380;0.098;2022-12-18T01:50:40;31.70;;;12.98;;
63259;SDS011;49390;51.380;0.098;2022-12-18T01:53:11;27.58;;;11.73;;
63259;SDS011;49390;51.380;0.098;2022-12-18T01:55:53;32.33;;;12.05;;
63259;SDS011;49390;51.380;0.098;2022-12-18T01:58:32;29.73;;;12.13;;
63259;SDS011;49390;51.380;0.098;2022-12-18T02:01:01;28.23;;;11.30;;
63259;SDS011;49390;51.380;0.098;2022-12-18T02:03:32;30.42;;;11.90;;
63259;SDS011;49390;51.380;0.098;2022-12-18T02:08:42;28.98;;;11.02;;
63259;SDS011;49390;51.380;0.098;2022-12-18T02:14:21;28.38;;;11.18;;
63259;SDS011;49390;51.380;0.098;2022-12-18T02:16:59;26.17;;;10.48;;
63259;SDS011;49390;51.380;0.098;2022-12-18T02:25:20;31.35;;;10.93;;
63259;SDS011;49390;51.380;0.098;2022-12-18T02:27:56;27.25;;;10.93;;
63259;SDS011;49390;51.380;0.098;2022-12-18T02:30:28;28.63;;;11.13;;
63259;SDS011;49390;51.380;0.098;2022-12-18T02:33:01;24.63;;;9.38;;
63259;SDS011;49390;51.380;0.098;2022-12-18T02:38:03;25.77;;;10.15;;
63259;SDS011;49390;51.380;0.098;2022-12-18T02:40:35;26.02;;;9.57;;
63259;SDS011;49390;51.380;0.098;2022-12-18T02:43:09;26.60;;;10.75;;
63259;SDS011;49390;51.380;0.098;2022-12-18T02:45:50;29.23;;;10.30;;
63259;SDS011;49390;51.380;0.098;2022-12-18T02:48:27;32.33;;;10.93;;
63259;SDS011;49390;51.380;0.098;2022-12-18T02:51:00;32.65;;;11.25;;
63259;SDS011;49390;51.380;0.098;2022-12-18T02:53:55;26.60;;;11.15;;
63259;SDS011;49390;51.380;0.098;2022-12-18T02:56:46;25.52;;;9.10;;
63259;SDS011;49390;51.380;0.098;2022-12-18T02:59:24;27.65;;;10.45;;
63259;SDS011;49390;51.380;0.098;2022-12-18T03:04:47;21.42;;;9.35;;
63259;SDS011;49390;51.380;0.098;2022-12-18T03:07:26;25.42;;;11.02;;
63259;SDS011;49390;51.380;0.098;2022-12-18T03:10:03;26.17;;;10.10;;
63259;SDS011;49390;51.380;0.098;2022-12-18T03:12:37;25.33;;;11.10;;
63259;SDS011;49390;51.380;0.098;2022-12-18T03:15:25;26.10;;;10.32;;
63259;SDS011;49390;51.380;0.098;2022-12-18T03:18:25;25.95;;;8.98;;
63259;SDS011;49390;51.380;0.098;2022-12-18T03:21:02;25.17;;;8.27;;
63259;SDS011;49390;51.380;0.098;2022-12-18T03:23:43;26.70;;;10.98;;
63259;SDS011;49390;51.380;0.098;2022-12-18T03:26:19;29.73;;;9.85;;
63259;SDS011;49390;51.380;0.098;2022-12-18T03:29:09;24.77;;;11.98;;
63259;SDS011;49390;51.380;0.098;2022-12-18T03:31:45;23.45;;;10.00;;
63259;SDS011;49390;51.380;0.098;2022-12-18T03:34:26;25.35;;;8.68;;
63259;SDS011;49390;51.380;0.098;2022-12-18T03:37:01;25.95;;;9.98;;
63259;SDS011;49390;51.380;0.098;2022-12-18T03:39:32;24.40;;;9.88;;
63259;SDS011;49390;51.380;0.098;2022-12-18T03:42:09;25.05;;;9.75;;
63259;SDS011;49390;51.380;0.098;2022-12-18T03:47:57;24.63;;;8.82;;
63259;SDS011;49390;51.380;0.098;2022-12-18T03:50:44;23.02;;;9.73;;
63259;SDS011;49390;51.380;0.098;2022-12-18T03:53:28;24.85;;;9.68;;
63259;SDS011;49390;51.380;0.098;2022-12-18T03:56:10;30.52;;;10.10;;
63259;SDS011;49390;51.380;0.098;2022-12-18T03:58:41;20.27;;;7.32;;
63259;SDS011;49390;51.380;0.098;2022-12-18T04:01:24;23.52;;;9.93;;
63259;SDS011;49390;51.380;0.098;2022-12-18T04:04:00;26.25;;;10.60;;
63259;SDS011;49390;51.380;0.098;2022-12-18T04:06:33;20.83;;;9.40;;
63259;SDS011;49390;51.380;0.098;2022-12-18T04:09:03;23.98;;;9.25;;
63259;SDS011;49390;51.380;0.098;2022-12-18T04:11:36;21.85;;;8.85;;
63259;SDS011;49390;51.380;0.098;2022-12-18T04:14:06;27.00;;;8.98;;
63259;SDS011;49390;51.380;0.098;2022-12-18T04:16:38;26.38;;;10.35;;
63259;SDS011;49390;51.380;0.098;2022-12-18T04:19:09;25.90;;;10.05;;
63259;SDS011;49390;51.380;0.098;2022-12-18T04:21:41;27.13;;;10.25;;
63259;SDS011;49390;51.380;0.098;2022-12-18T04:24:11;22.50;;;8.75;;
63259;SDS011;49390;51.380;0.098;2022-12-18T04:26:46;23.30;;;9.00;;
63259;SDS011;49390;51.380;0.098;2022-12-18T04:29:17;22.48;;;9.50;;
63259;SDS011;49390;51.380;0.098;2022-12-18T04:31:45;26.45;;;10.15;;
63259;SDS011;49390;51.380;0.098;2022-12-18T04:34:14;27.42;;;11.05;;
63259;SDS011;49390;51.380;0.098;2022-12-18T04:36:47;25.17;;;9.93;;
63259;SDS011;49390;51.380;0.098;2022-12-18T04:39:17;26.52;;;10.27;;
63259;SDS011;49390;51.380;0.098;2022-12-18T04:41:47;32.80;;;10.48;;
63259;SDS011;49390;51.380;0.098;2022-12-18T04:44:16;28.17;;;11.27;;
63259;SDS011;49390;51.380;0.098;2022-12-18T04:46:44;32.83;;;10.00;;
63259;SDS011;49390;51.380;0.098;2022-12-18T04:49:13;29.70;;;11.05;;
63259;SDS011;49390;51.380;0.098;2022-12-18T04:51:42;30.92;;;11.02;;
63259;SDS011;49390;51.380;0.098;2022-12-18T04:54:10;29.15;;;10.43;;
63259;SDS011;49390;51.380;0.098;2022-12-18T04:56:38;27.30;;;10.90;;
63259;SDS011;49390;51.380;0.098;2022-12-18T04:59:07;27.50;;;11.25;;
63259;SDS011;49390;51.380;0.098;2022-12-18T05:01:35;26.90;;;11.98;;
63259;SDS011;49390;51.380;0.098;2022-12-18T05:04:03;31.65;;;11.65;;
63259;SDS011;49390;51.380;0.098;2022-12-18T05:06:32;27.23;;;11.02;;
63259;SDS011;49390;51.380;0.098;2022-12-18T05:09:01;28.35;;;10.73;;
63259;SDS011;49390;51.380;0.098;2022-12-18T05:11:29;29.88;;;12.63;;
63259;SDS011;49390;51.380;0.098;2022-12-18T05:13:57;28.45;;;11.57;;
63259;SDS011;49390;51.380;0.098;2022-12-18T05:16:26;29.42;;;12.35;;
63259;SDS011;49390;51.380;0.098;2022-12-18T05:18:54;31.52;;;11.88;;
63259;SDS011;49390;51.380;0.098;2022-12-18T05:21:22;21.45;;;9.13;;
63259;SDS011;49390;51.380;0.098;2022-12-18T05:23:51;28.10;;;10.80;;
63259;SDS011;49390;51.380;0.098;2022-12-18T05:26:18;26.88;;;11.55;;
63259;SDS011;49390;51.380;0.098;2022-12-18T05:28:47;30.73;;;11.60;;
63259;SDS011;49390;51.380;0.098;2022-12-18T05:31:15;26.55;;;11.30;;
63259;SDS011;49390;51.380;0.098;2022-12-18T05:33:44;28.15;;;11.80;;
63259;SDS011;49390;51.380;0.098;2022-12-18T05:36:12;24.80;;;12.05;;
63259;SDS011;49390;51.380;0.098;2022-12-18T05:38:40;25.40;;;11.68;;
63259;SDS011;49390;51.380;0.098;2022-12-18T05:41:09;30.77;;;11.15;;
63259;SDS011;49390;51.380;0.098;2022-12-18T05:43:40;27.42;;;10.80;;
63259;SDS011;49390;51.380;0.098;2022-12-18T05:46:11;27.30;;;11.45;;
63259;SDS011;49390;51.380;0.098;2022-12-18T05:48:42;30.05;;;12.48;;
63259;SDS011;49390;51.380;0.098;2022-12-18T05:51:11;27.63;;;11.45;;
63259;SDS011;49390;51.380;0.098;2022-12-18T05:53:42;28.55;;;11.40;;
63259;SDS011;49390;51.380;0.098;2022-12-18T05:56:11;28.48;;;11.48;;
63259;SDS011;49390;51.380;0.098;2022-12-18T05:58:42;26.48;;;11.48;;
63259;SDS011;49390;51.380;0.098;2022-12-18T06:01:11;29.58;;;11.85;;
63259;SDS011;49390;51.380;0.098;2022-12-18T06:03:44;30.33;;;11.00;;
63259;SDS011;49390;51.380;0.098;2022-12-18T06:06:14;27.30;;;11.77;;
63259;SDS011;49390;51.380;0.098;2022-12-18T06:08:45;28.30;;;11.82;;
63259;SDS011;49390;51.380;0.098;2022-12-18T06:11:21;34.80;;;12.50;;
63259;SDS011;49390;51.380;0.098;2022-12-18T06:13:53;29.60;;;11.95;;
63259;SDS011;49390;51.380;0.098;2022-12-18T06:16:25;27.17;;;12.30;;
63259;SDS011;49390;51.380;0.098;2022-12-18T06:18:58;29.95;;;12.25;;
63259;SDS011;49390;51.380;0.098;2022-12-18T06:21:27;27.27;;;11.40;;
63259;SDS011;49390;51.380;0.098;2022-12-18T06:23:57;31.23;;;11.05;;
63259;SDS011;49390;51.380;0.098;2022-12-18T06:26:25;23.13;;;10.60;;
63259;SDS011;49390;51.380;0.098;2022-12-18T06:28:57;27.50;;;10.13;;
63259;SDS011;49390;51.380;0.098;2022-12-18T06:31:26;33.05;;;13.02;;
63259;SDS011;49390;51.380;0.098;2022-12-18T06:33:57;22.67;;;10.43;;
63259;SDS011;49390;51.380;0.098;2022-12-18T06:36:25;26.73;;;10.77;;
63259;SDS011;49390;51.380;0.098;2022-12-18T06:38:53;28.60;;;11.82;;
63259;SDS011;49390;51.380;0.098;2022-12-18T06:41:21;26.05;;;10.60;;
63259;SDS011;49390;51.380;0.098;2022-12-18T06:43:50;24.05;;;10.18;;
63259;SDS011;49390;51.380;0.098;2022-12-18T06:46:24;30.67;;;11.70;;
63259;SDS011;49390;51.380;0.098;2022-12-18T06:48:53;23.85;;;10.40;;
63259;SDS011;49390;51.380;0.098;2022-12-18T06:51:23;23.00;;;10.00;;
63259;SDS011;49390;51.380;0.098;2022-12-18T06:53:51;27.63;;;11.18;;
63259;SDS011;49390;51.380;0.098;2022-12-18T06:56:19;25.40;;;10.10;;
63259;SDS011;49390;51.380;0.098;2022-12-18T07:01:19;23.42;;;9.60;;
63259;SDS011;49390;51.380;0.098;2022-12-18T07:03:51;28.35;;;11.07;;
63259;SDS011;49390;51.380;0.098;2022-12-18T07:06:21;30.85;;;11.73;;
63259;SDS011;49390;51.380;0.098;2022-12-18T07:08:52;27.70;;;11.30;;
63259;SDS011;49390;51.380;0.098;2022-12-18T07:11:21;26.33;;;10.82;;
63259;SDS011;49390;51.380;0.098;2022-12-18T07:13:50;25.38;;;11.68;;
63259;SDS011;49390;51.380;0.098;2022-12-18T07:16:19;27.13;;;11.35;;
63259;SDS011;49390;51.380;0.098;2022-12-18T07:18:52;25.38;;;11.68;;
63259;SDS011;49390;51.380;0.098;2022-12-18T07:21:22;26.20;;;10.25;;
63259;SDS011;49390;51.380;0.098;2022-12-18T07:23:51;27.38;;;10.98;;
63259;SDS011;49390;51.380;0.098;2022-12-18T07:26:20;26.70;;;10.57;;
63259;SDS011;49390;51.380;0.098;2022-12-18T07:28:55;23.98;;;9.93;;
63259;SDS011;49390;51.380;0.098;2022-12-18T07:31:25;25.67;;;10.75;;
63259;SDS011;49390;51.380;0.098;2022-12-18T07:33:54;28.92;;;11.10;;
63259;SDS011;49390;51.380;0.098;2022-12-18T07:36:22;25.80;;;12.20;;
63259;SDS011;49390;51.380;0.098;2022-12-18T07:38:50;22.10;;;10.50;;
63259;SDS011;49390;51.380;0.098;2022-12-18T07:41:20;23.15;;;10.00;;
63259;SDS011;49390;51.380;0.098;2022-12-18T07:43:48;26.35;;;11.80;;
63259;SDS011;49390;51.380;0.098;2022-12-18T07:46:16;25.40;;;10.60;;
63259;SDS011;49390;51.380;0.098;2022-12-18T07:48:44;28.08;;;11.00;;
63259;SDS011;49390;51.380;0.098;2022-12-18T07:51:17;25.73;;;10.30;;
63259;SDS011;49390;51.380;0.098;2022-12-18T07:53:46;23.58;;;9.68;;
63259;SDS011;49390;51.380;0.098;2022-12-18T07:56:19;22.35;;;9.15;;
63259;SDS011;49390;51.380;0.098;2022-12-18T07:58:58;28.00;;;10.70;;
63259;SDS011;49390;51.380;0.098;2022-12-18T08:01:27;25.40;;;12.07;;
63259;SDS011;49390;51.380;0.098;2022-12-18T08:03:56;30.00;;;11.57;;
63259;SDS011;49390;51.380;0.098;2022-12-18T08:06:24;25.90;;;10.77;;
63259;SDS011;49390;51.380;0.098;2022-12-18T08:08:55;26.00;;;11.48;;
63259;SDS011;49390;51.380;0.098;2022-12-18T08:11:24;26.83;;;10.52;;
63259;SDS011;49390;51.380;0.098;2022-12-18T08:13:54;23.52;;;9.90;;
63259;SDS011;49390;51.380;0.098;2022-12-18T08:16:22;26.13;;;11.30;;
63259;SDS011;49390;51.380;0.098;2022-12-18T08:18:51;26.80;;;11.15;;
63259;SDS011;49390;51.380;0.098;2022-12-18T08:21:21;28.63;;;11.57;;
63259;SDS011;49390;51.380;0.098;2022-12-18T08:23:52;26.65;;;10.93;;
63259;SDS011;49390;51.380;0.098;2022-12-18T08:26:22;26.20;;;12.70;;
63259;SDS011;49390;51.380;0.098;2022-12-18T08:28:53;28.08;;;10.63;;
63259;SDS011;49390;51.380;0.098;2022-12-18T08:31:24;26.15;;;11.90;;
63259;SDS011;49390;51.380;0.098;2022-12-18T08:33:55;27.33;;;11.77;;
63259;SDS011;49390;51.380;0.098;2022-12-18T08:36:24;24.42;;;11.02;;
63259;SDS011;49390;51.380;0.098;2022-12-18T08:38:53;29.35;;;11.90;;
63259;SDS011;49390;51.380;0.098;2022-12-18T08:41:21;28.83;;;11.02;;
63259;SDS011;49390;51.380;0.098;2022-12-18T08:43:50;25.38;;;11.52;;
63259;SDS011;49390;51.380;0.098;2022-12-18T08:46:38;25.38;;;12.02;;
63259;SDS011;49390;51.380;0.098;2022-12-18T08:49:08;25.47;;;10.87;;
63259;SDS011;49390;51.380;0.098;2022-12-18T08:51:38;27.30;;;11.60;;
63259;SDS011;49390;51.380;0.098;2022-12-18T08:54:12;26.15;;;12.05;;
63259;SDS011;49390;51.380;0.098;2022-12-18T08:56:41;26.30;;;11.88;;
63259;SDS011;49390;51.380;0.098;2022-12-18T08:59:09;27.85;;;11.93;;
63259;SDS011;49390;51.380;0.098;2022-12-18T09:01:45;30.60;;;12.45;;
63259;SDS011;49390;51.380;0.098;2022-12-18T09:04:15;28.05;;;11.27;;
63259;SDS011;49390;51.380;0.098;2022-12-18T09:06:44;29.05;;;11.60;;
63259;SDS011;49390;51.380;0.098;2022-12-18T09:09:13;26.10;;;11.38;;
63259;SDS011;49390;51.380;0.098;2022-12-18T09:11:41;29.10;;;11.93;;
63259;SDS011;49390;51.380;0.098;2022-12-18T09:14:10;28.85;;;12.30;;
63259;SDS011;49390;51.380;0.098;2022-12-18T09:16:38;27.25;;;12.07;;
63259;SDS011;49390;51.380;0.098;2022-12-18T09:19:06;28.63;;;11.82;;
63259;SDS011;49390;51.380;0.098;2022-12-18T09:21:37;28.33;;;11.88;;
63259;SDS011;49390;51.380;0.098;2022-12-18T09:24:11;30.45;;;13.30;;
63259;SDS011;49390;51.380;0.098;2022-12-18T09:26:42;22.60;;;10.52;;
63259;SDS011;49390;51.380;0.098;2022-12-18T09:29:14;27.10;;;12.05;;
63259;SDS011;49390;51.380;0.098;2022-12-18T09:31:45;28.08;;;12.90;;
63259;SDS011;49390;51.380;0.098;2022-12-18T09:34:13;25.20;;;12.68;;
63259;SDS011;49390;51.380;0.098;2022-12-18T09:36:42;29.88;;;11.77;;
63259;SDS011;49390;51.380;0.098;2022-12-18T09:39:13;26.00;;;11.88;;
63259;SDS011;49390;51.380;0.098;2022-12-18T09:41:48;25.63;;;10.77;;
63259;SDS011;49390;51.380;0.098;2022-12-18T09:44:39;26.90;;;11.65;;
63259;SDS011;49390;51.380;0.098;2022-12-18T09:47:23;31.55;;;12.23;;
63259;SDS011;49390;51.380;0.098;2022-12-18T09:49:56;27.10;;;11.40;;
63259;SDS011;49390;51.380;0.098;2022-12-18T09:52:41;29.67;;;12.45;;
63259;SDS011;49390;51.380;0.098;2022-12-18T09:55:17;25.77;;;10.65;;
63259;SDS011;49390;51.380;0.098;2022-12-18T10:00:37;21.95;;;10.25;;
63259;SDS011;49390;51.380;0.098;2022-12-18T10:03:11;25.08;;;12.18;;
63259;SDS011;49390;51.380;0.098;2022-12-18T10:14:11;27.90;;;11.95;;
63259;SDS011;49390;51.380;0.098;2022-12-18T10:25:34;26.83;;;10.52;;
63259;SDS011;49390;51.380;0.098;2022-12-18T10:28:10;24.83;;;11.55;;
63259;SDS011;49390;51.380;0.098;2022-12-18T10:30:42;22.33;;;10.23;;
63259;SDS011;49390;51.380;0.098;2022-12-18T10:33:14;26.02;;;11.32;;
63259;SDS011;49390;51.380;0.098;2022-12-18T10:35:50;21.92;;;9.80;;
63259;SDS011;49390;51.380;0.098;2022-12-18T10:43:35;22.02;;;10.73;;
63259;SDS011;49390;51.380;0.098;2022-12-18T10:46:07;24.98;;;10.68;;
63259;SDS011;49390;51.380;0.098;2022-12-18T10:51:20;25.17;;;10.90;;
63259;SDS011;49390;51.380;0.098;2022-12-18T10:54:32;25.33;;;10.82;;
63259;SDS011;49390;51.380;0.098;2022-12-18T10:56:48;20.55;;;10.63;;
63259;SDS011;49390;51.380;0.098;2022-12-18T10:59:17;23.92;;;9.77;;
63259;SDS011;49390;51.380;0.098;2022-12-18T11:01:47;19.80;;;10.07;;
63259;SDS011;49390;51.380;0.098;2022-12-18T11:04:21;24.00;;;10.70;;
63259;SDS011;49390;51.380;0.098;2022-12-18T11:06:59;24.30;;;12.10;;
63259;SDS011;49390;51.380;0.098;2022-12-18T11:09:32;26.80;;;11.63;;
63259;SDS011;49390;51.380;0.098;2022-12-18T11:12:05;20.88;;;11.20;;
63259;SDS011;49390;51.380;0.098;2022-12-18T11:14:48;28.08;;;11.63;;
63259;SDS011;49390;51.380;0.098;2022-12-18T11:17:19;24.10;;;11.95;;
63259;SDS011;49390;51.380;0.098;2022-12-18T11:19:59;23.17;;;10.75;;
63259;SDS011;49390;51.380;0.098;2022-12-18T11:25:00;23.27;;;12.15;;
63259;SDS011;49390;51.380;0.098;2022-12-18T11:27:56;27.13;;;12.93;;
63259;SDS011;49390;51.380;0.098;2022-12-18T11:30:36;28.38;;;14.00;;
63259;SDS011;49390;51.380;0.098;2022-12-18T11:33:09;25.08;;;12.20;;
63259;SDS011;49390;51.380;0.098;2022-12-18T11:35:51;29.00;;;12.50;;
63259;SDS011;49390;51.380;0.098;2022-12-18T11:38:30;25.08;;;11.70;;
63259;SDS011;49390;51.380;0.098;2022-12-18T11:41:09;23.13;;;12.35;;
63259;SDS011;49390;51.380;0.098;2022-12-18T11:44:25;29.75;;;12.90;;
63259;SDS011;49390;51.380;0.098;2022-12-18T11:47:01;26.80;;;12.20;;
63259;SDS011;49390;51.380;0.098;2022-12-18T11:49:37;27.73;;;12.77;;
63259;SDS011;49390;51.380;0.098;2022-12-18T11:52:24;25.05;;;13.00;;
63259;SDS011;49390;51.380;0.098;2022-12-18T11:54:59;26.27;;;11.20;;
63259;SDS011;49390;51.380;0.098;2022-12-18T12:00:23;26.00;;;12.90;;
63259;SDS011;49390;51.380;0.098;2022-12-18T12:05:57;25.05;;;11.18;;
63259;SDS011;49390;51.380;0.098;2022-12-18T12:23:00;22.67;;;12.45;;
63259;SDS011;49390;51.380;0.098;2022-12-18T12:26:38;24.92;;;12.95;;
63259;SDS011;49390;51.380;0.098;2022-12-18T12:34:52;28.13;;;11.98;;
63259;SDS011;49390;51.380;0.098;2022-12-18T12:40:00;24.05;;;11.15;;
63259;SDS011;49390;51.380;0.098;2022-12-18T12:42:54;24.35;;;11.55;;
63259;SDS011;49390;51.380;0.098;2022-12-18T12:45:48;22.42;;;9.98;;
63259;SDS011;49390;51.380;0.098;2022-12-18T12:48:48;24.85;;;11.25;;
63259;SDS011;49390;51.380;0.098;2022-12-18T12:51:21;25.38;;;11.05;;
63259;SDS011;49390;51.380;0.098;2022-12-18T12:53:52;21.55;;;11.77;;
63259;SDS011;49390;51.380;0.098;2022-12-18T12:56:25;22.50;;;12.43;;
63259;SDS011;49390;51.380;0.098;2022-12-18T12:59:16;30.30;;;14.65;;
63259;SDS011;49390;51.380;0.098;2022-12-18T13:01:58;28.35;;;12.00;;
63259;SDS011;49390;51.380;0.098;2022-12-18T13:07:35;23.80;;;11.32;;
63259;SDS011;49390;51.380;0.098;2022-12-18T13:15:40;25.13;;;12.13;;
63259;SDS011;49390;51.380;0.098;2022-12-18T13:20:39;25.55;;;10.85;;
63259;SDS011;49390;51.380;0.098;2022-12-18T13:25:54;20.23;;;9.35;;
63259;SDS011;49390;51.380;0.098;2022-12-18T13:36:54;21.25;;;9.82;;
63259;SDS011;49390;51.380;0.098;2022-12-18T13:39:33;22.02;;;10.18;;
63259;SDS011;49390;51.380;0.098;2022-12-18T13:47:26;19.20;;;9.23;;
63259;SDS011;49390;51.380;0.098;2022-12-18T13:50:21;17.35;;;8.77;;
63259;SDS011;49390;51.380;0.098;2022-12-18T13:52:58;19.73;;;8.75;;
63259;SDS011;49390;51.380;0.098;2022-12-18T13:55:27;19.02;;;9.20;;
63259;SDS011;49390;51.380;0.098;2022-12-18T13:58:05;18.35;;;8.15;;
63259;SDS011;49390;51.380;0.098;2022-12-18T14:00:36;17.20;;;8.05;;
63259;SDS011;49390;51.380;0.098;2022-12-18T14:03:20;14.60;;;8.05;;
63259;SDS011;49390;51.380;0.098;2022-12-18T14:06:00;14.90;;;7.75;;
63259;SDS011;49390;51.380;0.098;2022-12-18T14:08:37;18.08;;;8.95;;
63259;SDS011;49390;51.380;0.098;2022-12-18T14:11:17;17.45;;;8.50;;
63259;SDS011;49390;51.380;0.098;2022-12-18T14:13:49;19.85;;;8.60;;
63259;SDS011;49390;51.380;0.098;2022-12-18T14:16:18;18.23;;;8.95;;
63259;SDS011;49390;51.380;0.098;2022-12-18T14:18:56;18.70;;;8.57;;
63259;SDS011;49390;51.380;0.098;2022-12-18T14:21:45;13.88;;;7.47;;
63259;SDS011;49390;51.380;0.098;2022-12-18T14:24:20;16.65;;;7.88;;
63259;SDS011;49390;51.380;0.098;2022-12-18T14:26:52;14.15;;;7.43;;
63259;SDS011;49390;51.380;0.098;2022-12-18T14:29:25;16.17;;;7.78;;
63259;SDS011;49390;51.380;0.098;2022-12-18T14:32:17;18.13;;;9.27;;
63259;SDS011;49390;51.380;0.098;2022-12-18T14:37:22;19.80;;;8.77;;
63259;SDS011;49390;51.380;0.098;2022-12-18T14:40:04;16.95;;;8.35;;
63259;SDS011;49390;51.380;0.098;2022-12-18T14:42:39;18.20;;;7.90;;
63259;SDS011;49390;51.380;0.098;2022-12-18T14:45:32;13.95;;;7.63;;
63259;SDS011;49390;51.380;0.098;2022-12-18T14:53:46;16.27;;;8.00;;
63259;SDS011;49390;51.380;0.098;2022-12-18T14:56:33;15.60;;;7.97;;
63259;SDS011;49390;51.380;0.098;2022-12-18T14:59:20;14.48;;;7.47;;
63259;SDS011;49390;51.380;0.098;2022-12-18T15:04:37;14.18;;;7.18;;
63259;SDS011;49390;51.380;0.098;2022-12-18T15:07:14;15.02;;;7.82;;
63259;SDS011;49390;51.380;0.098;2022-12-18T15:12:39;14.30;;;7.68;;
63259;SDS011;49390;51.380;0.098;2022-12-18T15:21:09;16.00;;;7.20;;
63259;SDS011;49390;51.380;0.098;2022-12-18T15:24:30;17.30;;;8.27;;
63259;SDS011;49390;51.380;0.098;2022-12-18T15:27:25;13.88;;;7.15;;
63259;SDS011;49390;51.380;0.098;2022-12-18T15:33:41;14.85;;;7.32;;
63259;SDS011;49390;51.380;0.098;2022-12-18T15:36:30;16.60;;;7.93;;
63259;SDS011;49390;51.380;0.098;2022-12-18T15:39:18;14.95;;;7.43;;
63259;SDS011;49390;51.380;0.098;2022-12-18T15:41:57;14.10;;;6.65;;
63259;SDS011;49390;51.380;0.098;2022-12-18T15:44:54;12.07;;;7.10;;
63259;SDS011;49390;51.380;0.098;2022-12-18T15:47:30;13.38;;;6.80;;
63259;SDS011;49390;51.380;0.098;2022-12-18T15:50:08;14.23;;;6.78;;
63259;SDS011;49390;51.380;0.098;2022-12-18T15:52:51;14.80;;;6.97;;
63259;SDS011;49390;51.380;0.098;2022-12-18T15:58:37;15.73;;;6.85;;
63259;SDS011;49390;51.380;0.098;2022-12-18T16:01:41;14.07;;;6.85;;
63259;SDS011;49390;51.380;0.098;2022-12-18T16:04:30;13.13;;;6.47;;
63259;SDS011;49390;51.380;0.098;2022-12-18T16:07:07;12.75;;;6.22;;
63259;SDS011;49390;51.380;0.098;2022-12-18T16:09:58;14.30;;;7.50;;
63259;SDS011;49390;51.380;0.098;2022-12-18T16:12:58;14.00;;;6.55;;
63259;SDS011;49390;51.380;0.098;2022-12-18T16:15:56;11.13;;;5.20;;
63259;SDS011;49390;51.380;0.098;2022-12-18T16:18:44;12.25;;;6.28;;
63259;SDS011;49390;51.380;0.098;2022-12-18T16:21:47;8.45;;;4.90;;
63259;SDS011;49390;51.380;0.098;2022-12-18T16:24:38;18.52;;;10.40;;
63259;SDS011;49390;51.380;0.098;2022-12-18T16:27:38;7.97;;;4.13;;
63259;SDS011;49390;51.380;0.098;2022-12-18T16:30:19;8.98;;;4.90;;
63259;SDS011;49390;51.380;0.098;2022-12-18T16:33:26;9.13;;;4.93;;
63259;SDS011;49390;51.380;0.098;2022-12-18T16:36:17;8.32;;;4.07;;
63259;SDS011;49390;51.380;0.098;2022-12-18T16:39:07;8.07;;;3.70;;
63259;SDS011;49390;51.380;0.098;2022-12-18T16:41:47;6.50;;;3.50;;
63259;SDS011;49390;51.380;0.098;2022-12-18T16:44:21;7.13;;;3.90;;
63259;SDS011;49390;51.380;0.098;2022-12-18T16:46:53;7.43;;;3.85;;
63259;SDS011;49390;51.380;0.098;2022-12-18T16:51:59;7.18;;;3.47;;
63259;SDS011;49390;51.380;0.098;2022-12-18T16:54:29;9.05;;;4.80;;
63259;SDS011;49390;51.380;0.098;2022-12-18T16:57:03;7.03;;;3.70;;
63259;SDS011;49390;51.380;0.098;2022-12-18T16:59:36;7.20;;;3.90;;
63259;SDS011;49390;51.380;0.098;2022-12-18T17:02:16;8.05;;;3.83;;
63259;SDS011;49390;51.380;0.098;2022-12-18T17:04:55;7.55;;;5.00;;
63259;SDS011;49390;51.380;0.098;2022-12-18T17:09:58;8.43;;;5.10;;
63259;SDS011;49390;51.380;0.098;2022-12-18T17:12:26;9.90;;;4.53;;
63259;SDS011;49390;51.380;0.098;2022-12-18T17:14:56;7.95;;;4.55;;
63259;SDS011;49390;51.380;0.098;2022-12-18T17:17:28;7.97;;;4.30;;
63259;SDS011;49390;51.380;0.098;2022-12-18T17:19:58;7.80;;;4.30;;
63259;SDS011;49390;51.380;0.098;2022-12-18T17:22:27;6.65;;;3.97;;
63259;SDS011;49390;51.380;0.098;2022-12-18T17:25:20;9.52;;;4.30;;
63259;SDS011;49390;51.380;0.098;2022-12-18T17:27:52;7.22;;;4.10;;
63259;SDS011;49390;51.380;0.098;2022-12-18T17:30:21;8.02;;;4.05;;